sensor_id;sensor_type;location;lat;lon;timestamp;temperature;humidity
34434;DHT22;34290;48.562;13.384;2022-08-19T00:02:57;18.10;99.90
34434;DHT22;34290;48.562;13.384;2022-08-19T00:05:24;18.10;99.90
34434;DHT22;34290;48.562;13.384;2022-08-19T00:10:18;18.10;99.90
34434;DHT22;34290;48.562;13.384;2022-08-19T00:12:46;18.00;99.90
34434;DHT22;34290;48.562;13.384;2022-08-19T00:15:17;18.00;99.90
34434;DHT22;34290;48.562;13.384;2022-08-19T00:17:45;18.00;99.90
34434;DHT22;34290;48.562;13.384;2022-08-19T00:20:15;18.00;99.90
34434;DHT22;34290;48.562;13.384;2022-08-19T00:22:43;18.00;99.90
34434;DHT22;34290;48.562;13.384;2022-08-19T00:25:11;18.00;99.90
34434;DHT22;34290;48.562;13.384;2022-08-19T00:30:09;18.10;99.90
34434;DHT22;34290;48.562;13.384;2022-08-19T00:32:39;18.20;99.90
34434;DHT22;34290;48.562;13.384;2022-08-19T00:35:09;18.30;99.90
34434;DHT22;34290;48.562;13.384;2022-08-19T00:37:37;18.40;99.90
34434;DHT22;34290;48.562;13.384;2022-08-19T00:40:10;18.50;99.90
34434;DHT22;34290;48.562;13.384;2022-08-19T00:42:37;18.50;99.90
34434;DHT22;34290;48.562;13.384;2022-08-19T00:45:10;18.50;99.90
34434;DHT22;34290;48.562;13.384;2022-08-19T00:47:39;18.50;99.90
34434;DHT22;34290;48.562;13.384;2022-08-19T00:50:08;18.60;99.90
34434;DHT22;34290;48.562;13.384;2022-08-19T00:52:40;18.60;99.90
34434;DHT22;34290;48.562;13.384;2022-08-19T00:55:13;18.50;99.90
34434;DHT22;34290;48.562;13.384;2022-08-19T00:57:46;18.50;99.90
34434;DHT22;34290;48.562;13.384;2022-08-19T01:00:17;18.50;99.90
34434;DHT22;34290;48.562;13.384;2022-08-19T01:02:47;18.40;99.90
34434;DHT22;34290;48.562;13.384;2022-08-19T01:05:17;18.40;99.90
34434;DHT22;34290;48.562;13.384;2022-08-19T01:07:47;18.30;99.90
34434;DHT22;34290;48.562;13.384;2022-08-19T01:10:17;18.30;99.90
34434;DHT22;34290;48.562;13.384;2022-08-19T01:12:48;18.30;99.90
34434;DHT22;34290;48.562;13.384;2022-08-19T01:15:20;18.20;99.90
34434;DHT22;34290;48.562;13.384;2022-08-19T01:17:49;18.30;99.90
34434;DHT22;34290;48.562;13.384;2022-08-19T01:20:20;18.40;99.90
34434;DHT22;34290;48.562;13.384;2022-08-19T01:22:50;18.50;99.90
34434;DHT22;34290;48.562;13.384;2022-08-19T01:25:20;18.50;99.90
34434;DHT22;34290;48.562;13.384;2022-08-19T01:27:50;18.60;99.90
34434;DHT22;34290;48.562;13.384;2022-08-19T01:30:22;18.70;99.90
34434;DHT22;34290;48.562;13.384;2022-08-19T01:32:53;18.70;99.90
34434;DHT22;34290;48.562;13.384;2022-08-19T01:35:23;18.80;99.90
34434;DHT22;34290;48.562;13.384;2022-08-19T01:37:54;18.70;99.90
34434;DHT22;34290;48.562;13.384;2022-08-19T01:40:24;18.70;99.90
34434;DHT22;34290;48.562;13.384;2022-08-19T01:42:52;18.80;99.90
34434;DHT22;34290;48.562;13.384;2022-08-19T01:45:22;18.80;99.90
34434;DHT22;34290;48.562;13.384;2022-08-19T01:47:49;18.70;99.90
34434;DHT22;34290;48.562;13.384;2022-08-19T01:50:16;18.70;99.90
34434;DHT22;34290;48.562;13.384;2022-08-19T01:52:44;18.70;99.90
34434;DHT22;34290;48.562;13.384;2022-08-19T01:55:14;18.70;99.90
34434;DHT22;34290;48.562;13.384;2022-08-19T01:57:46;18.70;99.90
34434;DHT22;34290;48.562;13.384;2022-08-19T02:00:17;18.70;99.90
34434;DHT22;34290;48.562;13.384;2022-08-19T02:02:44;18.70;99.90
34434;DHT22;34290;48.562;13.384;2022-08-19T02:05:12;18.70;99.90
34434;DHT22;34290;48.562;13.384;2022-08-19T02:07:40;18.70;99.90
34434;DHT22;34290;48.562;13.384;2022-08-19T02:10:10;18.80;99.90
34434;DHT22;34290;48.562;13.384;2022-08-19T02:12:39;18.80;99.90
34434;DHT22;34290;48.562;13.384;2022-08-19T02:15:07;18.80;99.90
34434;DHT22;34290;48.562;13.384;2022-08-19T02:17:34;18.80;99.90
34434;DHT22;34290;48.562;13.384;2022-08-19T02:20:01;18.80;99.90
34434;DHT22;34290;48.562;13.384;2022-08-19T02:24:55;18.80;99.90
34434;DHT22;34290;48.562;13.384;2022-08-19T02:27:23;18.80;99.90
34434;DHT22;34290;48.562;13.384;2022-08-19T02:29:53;18.90;99.90
34434;DHT22;34290;48.562;13.384;2022-08-19T02:32:20;18.90;99.90
34434;DHT22;34290;48.562;13.384;2022-08-19T02:34:50;18.90;99.90
34434;DHT22;34290;48.562;13.384;2022-08-19T02:40:03;18.90;99.90
34434;DHT22;34290;48.562;13.384;2022-08-19T02:42:30;18.90;99.90
34434;DHT22;34290;48.562;13.384;2022-08-19T02:44:59;18.90;99.90
34434;DHT22;34290;48.562;13.384;2022-08-19T02:47:26;18.90;99.90
34434;DHT22;34290;48.562;13.384;2022-08-19T02:49:53;19.00;99.90
34434;DHT22;34290;48.562;13.384;2022-08-19T02:52:20;19.00;99.90
34434;DHT22;34290;48.562;13.384;2022-08-19T02:54:49;19.00;99.90
34434;DHT22;34290;48.562;13.384;2022-08-19T02:59:43;19.00;99.90
34434;DHT22;34290;48.562;13.384;2022-08-19T03:02:11;19.00;99.90
34434;DHT22;34290;48.562;13.384;2022-08-19T03:04:38;18.90;99.90
34434;DHT22;34290;48.562;13.384;2022-08-19T03:07:05;18.90;99.90
34434;DHT22;34290;48.562;13.384;2022-08-19T03:09:32;18.80;99.90
34434;DHT22;34290;48.562;13.384;2022-08-19T03:11:59;18.80;99.90
34434;DHT22;34290;48.562;13.384;2022-08-19T03:14:26;18.80;99.90
34434;DHT22;34290;48.562;13.384;2022-08-19T03:19:25;18.80;99.90
34434;DHT22;34290;48.562;13.384;2022-08-19T03:26:50;18.80;99.90
34434;DHT22;34290;48.562;13.384;2022-08-19T03:29:18;18.80;99.90
34434;DHT22;34290;48.562;13.384;2022-08-19T03:31:45;18.80;99.90
34434;DHT22;34290;48.562;13.384;2022-08-19T03:34:15;18.80;99.90
34434;DHT22;34290;48.562;13.384;2022-08-19T03:36:45;18.80;99.90
34434;DHT22;34290;48.562;13.384;2022-08-19T03:39:12;18.80;99.90
34434;DHT22;34290;48.562;13.384;2022-08-19T03:41:41;18.80;99.90
34434;DHT22;34290;48.562;13.384;2022-08-19T03:44:08;18.80;99.90
34434;DHT22;34290;48.562;13.384;2022-08-19T03:46:35;18.80;99.90
34434;DHT22;34290;48.562;13.384;2022-08-19T03:49:04;18.90;99.90
34434;DHT22;34290;48.562;13.384;2022-08-19T03:51:38;18.80;99.90
34434;DHT22;34290;48.562;13.384;2022-08-19T03:54:08;18.80;99.90
34434;DHT22;34290;48.562;13.384;2022-08-19T03:56:37;18.80;99.90
34434;DHT22;34290;48.562;13.384;2022-08-19T03:59:06;18.80;99.90
34434;DHT22;34290;48.562;13.384;2022-08-19T04:01:34;18.80;99.90
34434;DHT22;34290;48.562;13.384;2022-08-19T04:04:02;18.80;99.90
34434;DHT22;34290;48.562;13.384;2022-08-19T04:06:31;18.80;99.90
34434;DHT22;34290;48.562;13.384;2022-08-19T04:09:00;18.90;99.90
34434;DHT22;34290;48.562;13.384;2022-08-19T04:11:31;18.90;99.90
34434;DHT22;34290;48.562;13.384;2022-08-19T04:13:59;18.90;99.90
34434;DHT22;34290;48.562;13.384;2022-08-19T04:16:28;19.00;99.90
34434;DHT22;34290;48.562;13.384;2022-08-19T04:18:55;19.00;99.90
34434;DHT22;34290;48.562;13.384;2022-08-19T04:21:24;18.90;99.90
34434;DHT22;34290;48.562;13.384;2022-08-19T04:23:52;18.90;99.90
34434;DHT22;34290;48.562;13.384;2022-08-19T04:26:21;18.90;99.90
34434;DHT22;34290;48.562;13.384;2022-08-19T04:28:50;19.00;99.90
34434;DHT22;34290;48.562;13.384;2022-08-19T04:31:19;18.90;99.90
34434;DHT22;34290;48.562;13.384;2022-08-19T04:36:18;18.90;99.90
34434;DHT22;34290;48.562;13.384;2022-08-19T04:38:46;19.00;99.90
34434;DHT22;34290;48.562;13.384;2022-08-19T04:41:14;18.90;99.90
34434;DHT22;34290;48.562;13.384;2022-08-19T04:44:00;18.90;99.90
34434;DHT22;34290;48.562;13.384;2022-08-19T04:46:27;19.00;99.90
34434;DHT22;34290;48.562;13.384;2022-08-19T04:48:55;19.00;99.90
34434;DHT22;34290;48.562;13.384;2022-08-19T04:51:23;19.00;99.90
34434;DHT22;34290;48.562;13.384;2022-08-19T04:53:51;19.00;99.90
34434;DHT22;34290;48.562;13.384;2022-08-19T04:56:19;19.00;99.90
34434;DHT22;34290;48.562;13.384;2022-08-19T04:58:49;19.00;99.90
34434;DHT22;34290;48.562;13.384;2022-08-19T05:01:21;19.00;99.90
34434;DHT22;34290;48.562;13.384;2022-08-19T05:03:48;19.00;99.90
34434;DHT22;34290;48.562;13.384;2022-08-19T05:06:18;19.00;99.90
34434;DHT22;34290;48.562;13.384;2022-08-19T05:08:45;19.10;99.90
34434;DHT22;34290;48.562;13.384;2022-08-19T05:11:14;19.20;99.90
34434;DHT22;34290;48.562;13.384;2022-08-19T05:13:42;19.10;99.90
34434;DHT22;34290;48.562;13.384;2022-08-19T05:16:13;19.20;99.90
34434;DHT22;34290;48.562;13.384;2022-08-19T05:18:41;19.10;99.90
34434;DHT22;34290;48.562;13.384;2022-08-19T05:21:27;19.20;99.90
34434;DHT22;34290;48.562;13.384;2022-08-19T05:24:13;19.20;99.90
34434;DHT22;34290;48.562;13.384;2022-08-19T05:26:41;19.20;99.90
34434;DHT22;34290;48.562;13.384;2022-08-19T05:29:11;19.20;99.90
34434;DHT22;34290;48.562;13.384;2022-08-19T05:31:38;19.20;99.90
34434;DHT22;34290;48.562;13.384;2022-08-19T05:34:07;19.20;99.90
34434;DHT22;34290;48.562;13.384;2022-08-19T05:36:36;19.20;99.90
34434;DHT22;34290;48.562;13.384;2022-08-19T05:39:05;19.20;99.90
34434;DHT22;34290;48.562;13.384;2022-08-19T05:41:32;19.20;99.90
34434;DHT22;34290;48.562;13.384;2022-08-19T05:44:03;19.30;99.90
34434;DHT22;34290;48.562;13.384;2022-08-19T05:46:35;19.50;99.90
34434;DHT22;34290;48.562;13.384;2022-08-19T05:49:02;19.60;99.90
34434;DHT22;34290;48.562;13.384;2022-08-19T05:51:33;19.60;99.90
34434;DHT22;34290;48.562;13.384;2022-08-19T05:56:28;19.70;99.90
34434;DHT22;34290;48.562;13.384;2022-08-19T05:58:56;19.80;99.90
34434;DHT22;34290;48.562;13.384;2022-08-19T06:01:24;19.80;99.90
34434;DHT22;34290;48.562;13.384;2022-08-19T06:03:52;19.90;99.90
34434;DHT22;34290;48.562;13.384;2022-08-19T06:06:22;19.90;99.90
34434;DHT22;34290;48.562;13.384;2022-08-19T06:08:51;19.90;99.90
34434;DHT22;34290;48.562;13.384;2022-08-19T06:11:20;19.90;99.90
34434;DHT22;34290;48.562;13.384;2022-08-19T06:13:49;19.90;99.90
34434;DHT22;34290;48.562;13.384;2022-08-19T06:16:18;19.90;99.90
34434;DHT22;34290;48.562;13.384;2022-08-19T06:18:50;20.10;99.90
34434;DHT22;34290;48.562;13.384;2022-08-19T06:21:19;20.20;99.90
34434;DHT22;34290;48.562;13.384;2022-08-19T06:26:16;20.30;99.90
34434;DHT22;34290;48.562;13.384;2022-08-19T06:28:44;20.30;99.90
34434;DHT22;34290;48.562;13.384;2022-08-19T06:31:12;20.30;99.90
34434;DHT22;34290;48.562;13.384;2022-08-19T06:33:40;20.30;99.90
34434;DHT22;34290;48.562;13.384;2022-08-19T06:38:42;20.40;99.90
34434;DHT22;34290;48.562;13.384;2022-08-19T06:41:09;20.50;99.90
34434;DHT22;34290;48.562;13.384;2022-08-19T06:43:38;20.70;99.90
34434;DHT22;34290;48.562;13.384;2022-08-19T06:46:10;20.70;99.90
34434;DHT22;34290;48.562;13.384;2022-08-19T06:48:38;20.80;99.90
34434;DHT22;34290;48.562;13.384;2022-08-19T06:51:06;20.80;99.90
34434;DHT22;34290;48.562;13.384;2022-08-19T06:53:33;20.70;99.90
34434;DHT22;34290;48.562;13.384;2022-08-19T06:56:00;20.70;99.90
34434;DHT22;34290;48.562;13.384;2022-08-19T06:58:28;20.80;99.90
34434;DHT22;34290;48.562;13.384;2022-08-19T07:01:00;20.90;99.90
34434;DHT22;34290;48.562;13.384;2022-08-19T07:03:29;20.90;99.90
34434;DHT22;34290;48.562;13.384;2022-08-19T07:05:58;21.00;99.90
34434;DHT22;34290;48.562;13.384;2022-08-19T07:10:53;21.60;99.90
34434;DHT22;34290;48.562;13.384;2022-08-19T07:13:21;21.80;99.90
34434;DHT22;34290;48.562;13.384;2022-08-19T07:15:48;21.90;99.90
34434;DHT22;34290;48.562;13.384;2022-08-19T07:18:18;22.00;99.90
34434;DHT22;34290;48.562;13.384;2022-08-19T07:20:45;22.00;99.90
34434;DHT22;34290;48.562;13.384;2022-08-19T07:23:15;21.80;99.90
34434;DHT22;34290;48.562;13.384;2022-08-19T07:25:43;21.70;99.90
34434;DHT22;34290;48.562;13.384;2022-08-19T07:30:37;21.40;99.90
34434;DHT22;34290;48.562;13.384;2022-08-19T07:33:08;21.40;99.90
34434;DHT22;34290;48.562;13.384;2022-08-19T07:35:36;21.40;99.90
34434;DHT22;34290;48.562;13.384;2022-08-19T07:38:03;21.40;99.90
34434;DHT22;34290;48.562;13.384;2022-08-19T07:40:31;21.30;99.90
34434;DHT22;34290;48.562;13.384;2022-08-19T07:45:28;21.50;99.90
34434;DHT22;34290;48.562;13.384;2022-08-19T07:47:55;21.50;99.90
34434;DHT22;34290;48.562;13.384;2022-08-19T07:50:22;21.50;99.90
34434;DHT22;34290;48.562;13.384;2022-08-19T07:52:50;21.50;99.90
34434;DHT22;34290;48.562;13.384;2022-08-19T07:55:21;21.60;99.90
34434;DHT22;34290;48.562;13.384;2022-08-19T07:57:51;21.60;99.90
34434;DHT22;34290;48.562;13.384;2022-08-19T08:02:46;21.80;99.90
34434;DHT22;34290;48.562;13.384;2022-08-19T08:05:13;21.80;99.90
34434;DHT22;34290;48.562;13.384;2022-08-19T08:07:59;21.90;99.90
34434;DHT22;34290;48.562;13.384;2022-08-19T08:10:43;21.90;99.90
34434;DHT22;34290;48.562;13.384;2022-08-19T08:13:10;22.00;99.90
34434;DHT22;34290;48.562;13.384;2022-08-19T08:15:37;22.00;99.90
34434;DHT22;34290;48.562;13.384;2022-08-19T08:18:05;22.00;99.90
34434;DHT22;34290;48.562;13.384;2022-08-19T08:20:32;22.00;99.90
34434;DHT22;34290;48.562;13.384;2022-08-19T08:23:01;21.90;99.90
34434;DHT22;34290;48.562;13.384;2022-08-19T08:25:45;21.90;99.90
34434;DHT22;34290;48.562;13.384;2022-08-19T08:28:12;21.90;99.90
34434;DHT22;34290;48.562;13.384;2022-08-19T08:30:39;21.90;99.90
34434;DHT22;34290;48.562;13.384;2022-08-19T08:33:08;22.00;99.90
34434;DHT22;34290;48.562;13.384;2022-08-19T08:35:35;22.10;99.90
34434;DHT22;34290;48.562;13.384;2022-08-19T08:38:03;22.10;99.90
34434;DHT22;34290;48.562;13.384;2022-08-19T08:40:38;22.20;99.90
34434;DHT22;34290;48.562;13.384;2022-08-19T08:43:18;22.10;99.90
34434;DHT22;34290;48.562;13.384;2022-08-19T08:45:50;22.20;99.90
34434;DHT22;34290;48.562;13.384;2022-08-19T08:48:30;22.40;99.90
34434;DHT22;34290;48.562;13.384;2022-08-19T08:50:59;22.30;99.90
34434;DHT22;34290;48.562;13.384;2022-08-19T08:53:30;22.40;99.90
34434;DHT22;34290;48.562;13.384;2022-08-19T08:56:03;22.30;99.90
34434;DHT22;34290;48.562;13.384;2022-08-19T08:58:39;22.40;99.90
34434;DHT22;34290;48.562;13.384;2022-08-19T09:01:10;22.50;99.90
34434;DHT22;34290;48.562;13.384;2022-08-19T09:03:40;22.40;99.90
34434;DHT22;34290;48.562;13.384;2022-08-19T09:06:13;22.40;99.90
34434;DHT22;34290;48.562;13.384;2022-08-19T09:08:49;22.30;99.90
34434;DHT22;34290;48.562;13.384;2022-08-19T09:11:24;22.30;99.90
34434;DHT22;34290;48.562;13.384;2022-08-19T09:14:04;22.30;99.90
34434;DHT22;34290;48.562;13.384;2022-08-19T09:16:32;22.50;99.90
34434;DHT22;34290;48.562;13.384;2022-08-19T09:19:03;22.40;99.90
34434;DHT22;34290;48.562;13.384;2022-08-19T09:21:30;22.60;99.90
34434;DHT22;34290;48.562;13.384;2022-08-19T09:23:59;22.90;99.90
34434;DHT22;34290;48.562;13.384;2022-08-19T09:26:26;23.20;99.90
34434;DHT22;34290;48.562;13.384;2022-08-19T09:28:54;23.30;99.90
34434;DHT22;34290;48.562;13.384;2022-08-19T09:31:23;23.30;99.90
34434;DHT22;34290;48.562;13.384;2022-08-19T09:33:51;23.00;99.90
34434;DHT22;34290;48.562;13.384;2022-08-19T09:36:20;22.90;99.90
34434;DHT22;34290;48.562;13.384;2022-08-19T09:38:48;22.70;99.90
34434;DHT22;34290;48.562;13.384;2022-08-19T09:41:20;22.80;99.90
34434;DHT22;34290;48.562;13.384;2022-08-19T09:43:50;22.80;99.90
34434;DHT22;34290;48.562;13.384;2022-08-19T09:46:21;22.80;99.90
34434;DHT22;34290;48.562;13.384;2022-08-19T09:48:49;22.90;99.90
34434;DHT22;34290;48.562;13.384;2022-08-19T09:51:19;23.00;99.90
34434;DHT22;34290;48.562;13.384;2022-08-19T09:53:48;23.40;99.90
34434;DHT22;34290;48.562;13.384;2022-08-19T09:56:19;23.60;99.90
34434;DHT22;34290;48.562;13.384;2022-08-19T09:58:47;23.70;99.90
34434;DHT22;34290;48.562;13.384;2022-08-19T10:01:19;24.00;99.90
34434;DHT22;34290;48.562;13.384;2022-08-19T10:03:48;24.60;99.90
34434;DHT22;34290;48.562;13.384;2022-08-19T10:06:17;25.00;99.90
34434;DHT22;34290;48.562;13.384;2022-08-19T10:08:45;26.10;99.90
34434;DHT22;34290;48.562;13.384;2022-08-19T10:11:13;26.10;99.90
34434;DHT22;34290;48.562;13.384;2022-08-19T10:13:45;26.30;99.90
34434;DHT22;34290;48.562;13.384;2022-08-19T10:16:14;26.50;99.90
34434;DHT22;34290;48.562;13.384;2022-08-19T10:18:44;26.40;99.90
34434;DHT22;34290;48.562;13.384;2022-08-19T10:21:12;26.40;99.90
34434;DHT22;34290;48.562;13.384;2022-08-19T10:23:41;26.10;99.90
34434;DHT22;34290;48.562;13.384;2022-08-19T10:26:20;26.20;99.90
34434;DHT22;34290;48.562;13.384;2022-08-19T10:28:49;26.20;99.90
34434;DHT22;34290;48.562;13.384;2022-08-19T10:31:18;27.20;99.90
34434;DHT22;34290;48.562;13.384;2022-08-19T10:33:46;27.30;99.90
34434;DHT22;34290;48.562;13.384;2022-08-19T10:36:17;28.30;96.90
34434;DHT22;34290;48.562;13.384;2022-08-19T10:38:46;27.80;97.30
34434;DHT22;34290;48.562;13.384;2022-08-19T10:43:44;28.60;95.70
34434;DHT22;34290;48.562;13.384;2022-08-19T10:46:15;28.10;96.00
34434;DHT22;34290;48.562;13.384;2022-08-19T10:48:42;28.50;95.50
34434;DHT22;34290;48.562;13.384;2022-08-19T10:51:10;28.40;95.60
34434;DHT22;34290;48.562;13.384;2022-08-19T10:53:55;28.50;94.80
34434;DHT22;34290;48.562;13.384;2022-08-19T10:56:23;27.50;96.00
34434;DHT22;34290;48.562;13.384;2022-08-19T10:59:09;26.60;97.10
34434;DHT22;34290;48.562;13.384;2022-08-19T11:01:41;27.00;97.50
34434;DHT22;34290;48.562;13.384;2022-08-19T11:04:09;27.20;97.80
34434;DHT22;34290;48.562;13.384;2022-08-19T11:06:39;26.90;96.00
34434;DHT22;34290;48.562;13.384;2022-08-19T11:09:07;27.20;96.60
34434;DHT22;34290;48.562;13.384;2022-08-19T11:11:35;27.90;95.90
34434;DHT22;34290;48.562;13.384;2022-08-19T11:14:05;27.90;96.40
34434;DHT22;34290;48.562;13.384;2022-08-19T11:16:32;28.20;94.50
34434;DHT22;34290;48.562;13.384;2022-08-19T11:19:00;27.60;95.20
34434;DHT22;34290;48.562;13.384;2022-08-19T11:21:29;27.50;95.50
34434;DHT22;34290;48.562;13.384;2022-08-19T11:23:59;28.10;95.20
34434;DHT22;34290;48.562;13.384;2022-08-19T11:26:30;28.20;95.30
34434;DHT22;34290;48.562;13.384;2022-08-19T11:28:58;29.10;94.10
34434;DHT22;34290;48.562;13.384;2022-08-19T11:31:27;29.50;92.20
34434;DHT22;34290;48.562;13.384;2022-08-19T11:33:56;29.40;92.10
34434;DHT22;34290;48.562;13.384;2022-08-19T11:36:30;28.90;92.50
34434;DHT22;34290;48.562;13.384;2022-08-19T11:38:58;28.70;92.60
34434;DHT22;34290;48.562;13.384;2022-08-19T11:41:25;28.40;93.10
34434;DHT22;34290;48.562;13.384;2022-08-19T11:43:54;28.40;93.40
34434;DHT22;34290;48.562;13.384;2022-08-19T11:46:23;28.50;92.70
34434;DHT22;34290;48.562;13.384;2022-08-19T11:48:50;28.30;92.90
34434;DHT22;34290;48.562;13.384;2022-08-19T11:51:20;27.60;93.40
34434;DHT22;34290;48.562;13.384;2022-08-19T11:53:48;27.60;93.50
34434;DHT22;34290;48.562;13.384;2022-08-19T11:56:16;27.30;94.50
34434;DHT22;34290;48.562;13.384;2022-08-19T11:58:43;27.30;94.70
34434;DHT22;34290;48.562;13.384;2022-08-19T12:01:11;26.90;94.70
34434;DHT22;34290;48.562;13.384;2022-08-19T12:03:39;26.90;94.50
34434;DHT22;34290;48.562;13.384;2022-08-19T12:06:11;26.80;94.50
34434;DHT22;34290;48.562;13.384;2022-08-19T12:08:41;26.70;94.40
34434;DHT22;34290;48.562;13.384;2022-08-19T12:11:11;26.70;94.80
34434;DHT22;34290;48.562;13.384;2022-08-19T12:13:40;26.80;95.10
34434;DHT22;34290;48.562;13.384;2022-08-19T12:16:13;26.90;95.00
34434;DHT22;34290;48.562;13.384;2022-08-19T12:18:42;27.10;94.40
34434;DHT22;34290;48.562;13.384;2022-08-19T12:21:12;27.00;94.40
34434;DHT22;34290;48.562;13.384;2022-08-19T12:23:39;27.30;94.20
34434;DHT22;34290;48.562;13.384;2022-08-19T12:26:10;27.50;93.80
34434;DHT22;34290;48.562;13.384;2022-08-19T12:28:37;27.60;93.90
34434;DHT22;34290;48.562;13.384;2022-08-19T12:31:05;27.90;93.30
34434;DHT22;34290;48.562;13.384;2022-08-19T12:33:32;27.90;93.10
34434;DHT22;34290;48.562;13.384;2022-08-19T12:36:01;27.80;94.10
34434;DHT22;34290;48.562;13.384;2022-08-19T12:38:31;27.60;93.20
34434;DHT22;34290;48.562;13.384;2022-08-19T12:41:00;27.60;93.50
34434;DHT22;34290;48.562;13.384;2022-08-19T12:43:35;27.90;93.80
34434;DHT22;34290;48.562;13.384;2022-08-19T12:46:05;27.70;93.50
34434;DHT22;34290;48.562;13.384;2022-08-19T12:48:33;27.60;93.70
34434;DHT22;34290;48.562;13.384;2022-08-19T12:51:00;27.50;93.50
34434;DHT22;34290;48.562;13.384;2022-08-19T12:53:33;27.30;93.30
34434;DHT22;34290;48.562;13.384;2022-08-19T12:56:01;27.20;94.10
34434;DHT22;34290;48.562;13.384;2022-08-19T12:58:29;27.30;93.00
34434;DHT22;34290;48.562;13.384;2022-08-19T13:00:57;27.40;93.30
34434;DHT22;34290;48.562;13.384;2022-08-19T13:03:24;27.30;93.20
34434;DHT22;34290;48.562;13.384;2022-08-19T13:05:56;27.30;94.00
34434;DHT22;34290;48.562;13.384;2022-08-19T13:08:23;27.20;93.70
34434;DHT22;34290;48.562;13.384;2022-08-19T13:10:50;27.30;93.80
34434;DHT22;34290;48.562;13.384;2022-08-19T13:13:19;27.30;93.70
34434;DHT22;34290;48.562;13.384;2022-08-19T13:15:46;27.40;93.90
34434;DHT22;34290;48.562;13.384;2022-08-19T13:18:14;27.40;93.70
34434;DHT22;34290;48.562;13.384;2022-08-19T13:20:44;27.30;93.20
34434;DHT22;34290;48.562;13.384;2022-08-19T13:23:11;27.30;92.70
34434;DHT22;34290;48.562;13.384;2022-08-19T13:25:38;27.30;93.30
34434;DHT22;34290;48.562;13.384;2022-08-19T13:28:05;27.20;93.30
34434;DHT22;34290;48.562;13.384;2022-08-19T13:30:33;27.20;94.10
34434;DHT22;34290;48.562;13.384;2022-08-19T13:33:28;27.10;94.20
34434;DHT22;34290;48.562;13.384;2022-08-19T13:35:57;27.30;94.50
34434;DHT22;34290;48.562;13.384;2022-08-19T13:38:27;27.30;94.60
34434;DHT22;34290;48.562;13.384;2022-08-19T13:40:56;27.60;94.00
34434;DHT22;34290;48.562;13.384;2022-08-19T13:43:25;27.70;93.40
34434;DHT22;34290;48.562;13.384;2022-08-19T13:45:54;27.60;93.40
34434;DHT22;34290;48.562;13.384;2022-08-19T13:48:22;27.70;93.40
34434;DHT22;34290;48.562;13.384;2022-08-19T13:50:51;27.70;93.30
34434;DHT22;34290;48.562;13.384;2022-08-19T13:53:18;27.60;91.90
34434;DHT22;34290;48.562;13.384;2022-08-19T13:55:45;27.80;92.60
34434;DHT22;34290;48.562;13.384;2022-08-19T13:58:13;27.80;92.10
34434;DHT22;34290;48.562;13.384;2022-08-19T14:00:43;27.80;91.90
34434;DHT22;34290;48.562;13.384;2022-08-19T14:03:10;27.50;91.90
34434;DHT22;34290;48.562;13.384;2022-08-19T14:05:38;27.70;92.00
34434;DHT22;34290;48.562;13.384;2022-08-19T14:08:07;27.90;91.70
34434;DHT22;34290;48.562;13.384;2022-08-19T14:10:34;28.20;91.20
34434;DHT22;34290;48.562;13.384;2022-08-19T14:13:03;28.50;90.40
34434;DHT22;34290;48.562;13.384;2022-08-19T14:15:30;28.30;90.40
34434;DHT22;34290;48.562;13.384;2022-08-19T14:17:57;28.10;89.10
34434;DHT22;34290;48.562;13.384;2022-08-19T14:20:25;27.90;90.00
34434;DHT22;34290;48.562;13.384;2022-08-19T14:22:52;28.00;89.00
34434;DHT22;34290;48.562;13.384;2022-08-19T14:25:24;27.90;89.70
34434;DHT22;34290;48.562;13.384;2022-08-19T14:27:55;27.90;88.70
34434;DHT22;34290;48.562;13.384;2022-08-19T14:30:25;27.90;88.50
34434;DHT22;34290;48.562;13.384;2022-08-19T14:32:57;28.00;89.50
34434;DHT22;34290;48.562;13.384;2022-08-19T14:35:25;28.00;89.50
34434;DHT22;34290;48.562;13.384;2022-08-19T14:37:53;28.10;90.00
34434;DHT22;34290;48.562;13.384;2022-08-19T14:40:24;28.20;90.20
34434;DHT22;34290;48.562;13.384;2022-08-19T14:42:51;28.30;90.20
34434;DHT22;34290;48.562;13.384;2022-08-19T14:45:21;28.10;89.30
34434;DHT22;34290;48.562;13.384;2022-08-19T14:47:48;28.00;90.00
34434;DHT22;34290;48.562;13.384;2022-08-19T14:50:16;27.80;90.30
34434;DHT22;34290;48.562;13.384;2022-08-19T14:52:43;27.70;90.30
34434;DHT22;34290;48.562;13.384;2022-08-19T14:55:10;27.70;90.50
34434;DHT22;34290;48.562;13.384;2022-08-19T14:57:40;27.60;91.00
34434;DHT22;34290;48.562;13.384;2022-08-19T15:00:08;27.80;91.30
34434;DHT22;34290;48.562;13.384;2022-08-19T15:02:38;27.90;91.10
34434;DHT22;34290;48.562;13.384;2022-08-19T15:05:06;28.00;90.90
34434;DHT22;34290;48.562;13.384;2022-08-19T15:07:33;28.00;91.10
34434;DHT22;34290;48.562;13.384;2022-08-19T15:10:00;28.10;91.40
34434;DHT22;34290;48.562;13.384;2022-08-19T15:12:27;28.00;92.20
34434;DHT22;34290;48.562;13.384;2022-08-19T15:14:55;28.00;92.60
34434;DHT22;34290;48.562;13.384;2022-08-19T15:17:22;28.10;92.40
34434;DHT22;34290;48.562;13.384;2022-08-19T15:19:50;28.10;92.50
34434;DHT22;34290;48.562;13.384;2022-08-19T15:22:17;28.10;92.40
34434;DHT22;34290;48.562;13.384;2022-08-19T15:24:44;28.00;92.40
34434;DHT22;34290;48.562;13.384;2022-08-19T15:27:12;28.00;92.60
34434;DHT22;34290;48.562;13.384;2022-08-19T15:29:39;28.00;92.70
34434;DHT22;34290;48.562;13.384;2022-08-19T15:32:07;28.00;92.30
34434;DHT22;34290;48.562;13.384;2022-08-19T15:34:38;28.10;92.20
34434;DHT22;34290;48.562;13.384;2022-08-19T15:37:05;28.10;91.90
34434;DHT22;34290;48.562;13.384;2022-08-19T15:39:35;28.10;91.90
34434;DHT22;34290;48.562;13.384;2022-08-19T15:42:03;28.10;91.70
34434;DHT22;34290;48.562;13.384;2022-08-19T15:44:30;28.10;92.00
34434;DHT22;34290;48.562;13.384;2022-08-19T15:46:57;28.00;92.00
34434;DHT22;34290;48.562;13.384;2022-08-19T15:49:25;27.90;92.60
34434;DHT22;34290;48.562;13.384;2022-08-19T15:51:52;27.90;93.00
34434;DHT22;34290;48.562;13.384;2022-08-19T15:54:22;27.90;93.30
34434;DHT22;34290;48.562;13.384;2022-08-19T15:56:50;28.00;93.10
34434;DHT22;34290;48.562;13.384;2022-08-19T15:59:36;28.00;92.80
34434;DHT22;34290;48.562;13.384;2022-08-19T16:02:24;27.70;92.80
34434;DHT22;34290;48.562;13.384;2022-08-19T16:05:14;27.60;93.10
34434;DHT22;34290;48.562;13.384;2022-08-19T16:07:59;27.60;93.20
34434;DHT22;34290;48.562;13.384;2022-08-19T16:10:26;27.70;93.40
34434;DHT22;34290;48.562;13.384;2022-08-19T16:12:53;27.70;93.40